Time;durP1;ratioP1;P1;durP2;ratioP2;P2;SDS_P1;SDS_P2;PMS_P1;PMS_P2;Temp;Humidity;BMP_temperature;BMP_pressure;BME280_temperature;BME280_humidity;BME280_pressure;Samples;Min_cycle;Max_cycle;Signal;HPM_P1;HPM_P2
2022/10/15 00:00:14;;;;;;;;;;;;;;;11.11;100.00;95248.25;5082427;28;19931;-67
2022/10/15 00:02:41;;;;;;;;;;;;;;;11.20;100.00;95240.88;5082180;28;19927;-67
2022/10/15 00:05:08;;;;;;;;;;;;;;;11.19;100.00;95240.09;5082366;28;19932;-67
2022/10/15 00:07:34;;;;;;;;;;;;;;;11.39;100.00;95244.19;5082969;28;19924;-66
2022/10/15 00:10:01;;;;;;;;;;;;;;;11.40;100.00;95240.59;5082997;28;19965;-67
2022/10/15 00:12:27;;;;;;;;;;;;;;;11.33;100.00;95234.69;5082977;28;20428;-67
2022/10/15 00:14:54;;;;;;;;;;;;;;;11.35;100.00;95230.81;5093723;28;20011;-67
2022/10/15 00:17:21;;;;;;;;;;;;;;;11.31;100.00;95236.69;5086160;28;20382;-66
2022/10/15 00:19:48;;;;;;;;;;;;;;;11.33;100.00;95235.47;5085997;28;19928;-67
2022/10/15 00:22:14;;;;;;;;;;;;;;;11.40;100.00;95233.53;5086122;28;19924;-67
2022/10/15 00:24:41;;;;;;;;;;;;;;;11.49;100.00;95228.78;5086106;28;19924;-67
2022/10/15 00:27:07;;;;;;;;;;;;;;;11.47;100.00;95221.19;5086942;28;20255;-67
2022/10/15 00:29:34;;;;;;;;;;;;;;;11.33;100.00;95221.66;5086480;28;19928;-67
2022/10/15 00:32:01;;;;;;;;;;;;;;;11.41;100.00;95221.28;5071174;28;19935;-67
2022/10/15 00:34:29;;;;;;;;;;;;;;;11.40;100.00;95224.94;5089214;28;19934;-67
2022/10/15 00:36:56;;;;;;;;;;;;;;;11.39;100.00;95223.34;5068655;28;20391;-67
2022/10/15 00:39:23;;;;;;;;;;;;;;;11.25;100.00;95220.94;5068273;28;20022;-67
2022/10/15 00:41:50;;;;;;;;;;;;;;;11.34;100.00;95220.59;5088845;28;19963;-66
2022/10/15 00:44:20;;;;;;;;;;;;;;;11.33;100.00;95208.59;5088242;28;19978;-68
2022/10/15 00:46:48;;;;;;;;;;;;;;;11.37;100.00;95214.94;5064525;28;19932;-67
2022/10/15 00:49:17;;;;;;;;;;;;;;;11.40;100.00;95217.13;5064638;28;19932;-68
2022/10/15 00:51:47;;;;;;;;;;;;;;;11.32;100.00;95207.00;5070612;28;19928;-67
2022/10/15 00:54:14;;;;;;;;;;;;;;;11.43;100.00;95208.81;5065585;28;20027;-68
2022/10/15 00:56:42;;;;;;;;;;;;;;;11.43;100.00;95209.63;5064620;28;20031;-68
2022/10/15 00:59:11;;;;;;;;;;;;;;;11.46;100.00;95197.94;5066788;28;20384;-67
2022/10/15 01:01:37;;;;;;;;;;;;;;;11.38;100.00;95195.66;5068037;28;19924;-67
2022/10/15 01:04:05;;;;;;;;;;;;;;;11.41;100.00;95197.81;5067315;28;19954;-67
2022/10/15 01:06:31;;;;;;;;;;;;;;;11.39;100.00;95207.69;5070446;28;19936;-67
2022/10/15 01:08:59;;;;;;;;;;;;;;;11.46;100.00;95203.16;5065342;28;20417;-67
2022/10/15 01:11:36;;;;;;;;;;;;;;;11.43;100.00;95203.59;5069486;28;19928;-67
2022/10/15 01:14:09;;;;;;;;;;;;;;;11.51;100.00;95200.66;5065541;28;20457;-67
2022/10/15 01:16:54;;;;;;;;;;;;;;;11.45;100.00;95206.78;5064908;28;19932;-67
2022/10/15 01:19:28;;;;;;;;;;;;;;;11.52;100.00;95207.44;5078295;28;19931;-67
2022/10/15 01:22:08;;;;;;;;;;;;;;;11.46;100.00;95198.72;5064799;28;19929;-67
2022/10/15 01:24:39;;;;;;;;;;;;;;;11.53;100.00;95201.22;5068282;28;20313;-66
2022/10/15 01:27:23;;;;;;;;;;;;;;;11.47;100.00;95194.31;5065152;28;19924;-67
2022/10/15 01:29:50;;;;;;;;;;;;;;;11.35;100.00;95206.56;5062827;28;19925;-67
2022/10/15 01:32:25;;;;;;;;;;;;;;;11.53;100.00;95203.84;5063451;28;19935;-66
2022/10/15 01:35:21;;;;;;;;;;;;;;;11.50;100.00;95199.06;5063638;28;19936;-67
2022/10/15 01:37:48;;;;;;;;;;;;;;;11.37;100.00;95200.09;5063927;28;19925;-65
2022/10/15 01:40:36;;;;;;;;;;;;;;;11.41;100.00;95206.44;5065013;28;20269;-68
2022/10/15 01:43:05;;;;;;;;;;;;;;;11.46;100.00;95209.16;5065155;28;19932;-67
2022/10/15 01:45:47;;;;;;;;;;;;;;;11.40;100.00;95198.84;5065068;28;19928;-67
2022/10/15 01:48:34;;;;;;;;;;;;;;;11.29;100.00;95198.63;5066077;28;19984;-68
2022/10/15 01:51:02;;;;;;;;;;;;;;;11.27;100.00;95195.44;5068390;28;20035;-67
2022/10/15 01:53:33;;;;;;;;;;;;;;;11.31;100.00;95197.56;5082635;28;19924;-68
2022/10/15 01:56:02;;;;;;;;;;;;;;;11.33;100.00;95192.97;5080102;28;20009;-67
2022/10/15 01:58:29;;;;;;;;;;;;;;;11.31;100.00;95200.19;5083747;28;19935;-67
2022/10/15 02:00:57;;;;;;;;;;;;;;;11.26;100.00;95199.06;5068783;28;20024;-67
2022/10/15 02:03:25;;;;;;;;;;;;;;;11.23;100.00;95202.09;5084819;28;19951;-68
2022/10/15 02:05:55;;;;;;;;;;;;;;;11.32;100.00;95193.97;5085817;28;19927;-67
2022/10/15 02:08:29;;;;;;;;;;;;;;;11.29;100.00;95193.41;5065517;28;19981;-68
2022/10/15 02:10:59;;;;;;;;;;;;;;;11.25;100.00;95196.66;5068353;28;19928;-67
2022/10/15 02:13:46;;;;;;;;;;;;;;;11.25;100.00;95192.28;5084316;28;19924;-67
2022/10/15 02:16:13;;;;;;;;;;;;;;;11.34;100.00;95199.75;5075852;28;19974;-68
2022/10/15 02:18:44;;;;;;;;;;;;;;;11.26;100.00;95193.84;5089823;28;20000;-66
2022/10/15 02:21:20;;;;;;;;;;;;;;;11.18;100.00;95196.81;5095838;28;19924;-67
2022/10/15 02:23:52;;;;;;;;;;;;;;;11.07;100.00;95200.16;5087093;28;19932;-66
2022/10/15 02:26:25;;;;;;;;;;;;;;;10.99;100.00;95197.91;5078933;28;20657;-66
2022/10/15 02:28:53;;;;;;;;;;;;;;;11.00;100.00;95202.06;5089345;28;19955;-66
2022/10/15 02:31:21;;;;;;;;;;;;;;;11.06;100.00;95198.59;5070756;28;19924;-65
2022/10/15 02:33:50;;;;;;;;;;;;;;;11.06;100.00;95204.59;5086988;28;19935;-66
2022/10/15 02:36:17;;;;;;;;;;;;;;;11.00;100.00;95204.69;5086083;28;19931;-67
2022/10/15 02:38:44;;;;;;;;;;;;;;;10.92;100.00;95208.41;5073079;28;19971;-67
2022/10/15 02:41:12;;;;;;;;;;;;;;;10.93;100.00;95206.59;5089030;28;20362;-65
2022/10/15 02:43:39;;;;;;;;;;;;;;;10.99;100.00;95200.50;5070419;28;20391;-66
2022/10/15 02:46:09;;;;;;;;;;;;;;;10.89;100.00;95207.06;5090196;28;20416;-65
2022/10/15 02:48:36;;;;;;;;;;;;;;;10.89;100.00;95204.47;5065579;28;19928;-66
2022/10/15 02:51:03;;;;;;;;;;;;;;;10.87;100.00;95206.47;5068754;28;19954;-65
2022/10/15 02:53:30;;;;;;;;;;;;;;;10.94;100.00;95195.16;5094079;28;19930;-65
2022/10/15 02:55:57;;;;;;;;;;;;;;;10.88;100.00;95195.03;5075231;28;19928;-64
2022/10/15 02:58:24;;;;;;;;;;;;;;;10.83;100.00;95189.69;5067586;28;20027;-65
2022/10/15 03:00:52;;;;;;;;;;;;;;;10.94;100.00;95195.94;5066523;28;19988;-66
2022/10/15 03:03:18;;;;;;;;;;;;;;;10.86;100.00;95199.69;5066307;28;20224;-66
2022/10/15 03:05:45;;;;;;;;;;;;;;;10.93;100.00;95198.78;5066981;28;19928;-67
2022/10/15 03:08:13;;;;;;;;;;;;;;;10.93;100.00;95198.78;5070517;28;19928;-67
2022/10/15 03:10:40;;;;;;;;;;;;;;;10.95;100.00;95202.75;5067461;28;19928;-67
2022/10/15 03:13:07;;;;;;;;;;;;;;;10.87;100.00;95206.47;5084470;28;19923;-66
2022/10/15 03:15:42;;;;;;;;;;;;;;;10.76;100.00;95204.63;5067609;28;20031;-67
2022/10/15 03:18:08;;;;;;;;;;;;;;;10.83;100.00;95207.94;5065085;28;19928;-66
2022/10/15 03:20:35;;;;;;;;;;;;;;;10.87;100.00;95200.47;5064452;28;19928;-67
2022/10/15 03:23:02;;;;;;;;;;;;;;;10.96;100.00;95198.34;5064904;28;19928;-67
2022/10/15 03:25:30;;;;;;;;;;;;;;;10.89;100.00;95198.44;5063862;28;20032;-66
2022/10/15 03:28:00;;;;;;;;;;;;;;;10.87;100.00;95188.22;5064762;28;20451;-66
2022/10/15 03:30:35;;;;;;;;;;;;;;;10.88;100.00;95196.84;5066765;28;20421;-66
2022/10/15 03:33:02;;;;;;;;;;;;;;;10.85;100.00;95198.09;5064583;28;19931;-66
2022/10/15 03:35:28;;;;;;;;;;;;;;;10.82;100.00;95198.56;5083024;28;19982;-65
2022/10/15 03:37:56;;;;;;;;;;;;;;;10.79;100.00;95201.59;5067070;28;19928;-66
2022/10/15 03:40:22;;;;;;;;;;;;;;;10.76;100.00;95204.63;5064454;28;19969;-66
2022/10/15 03:42:55;;;;;;;;;;;;;;;10.74;100.00;95206.66;5065300;28;19928;-66
2022/10/15 03:45:24;;;;;;;;;;;;;;;10.72;100.00;95208.72;5089189;28;19924;-66
2022/10/15 03:48:03;;;;;;;;;;;;;;;10.84;100.00;95203.50;5064683;28;19928;-66
2022/10/15 03:50:32;;;;;;;;;;;;;;;10.74;100.00;95201.47;5066487;28;19928;-65
2022/10/15 03:53:04;;;;;;;;;;;;;;;10.74;100.00;95200.69;5068650;28;19946;-66
2022/10/15 03:55:32;;;;;;;;;;;;;;;10.77;100.00;95195.81;5068751;28;20302;-66
2022/10/15 03:57:59;;;;;;;;;;;;;;;10.63;100.00;95200.41;5071910;28;19924;-66
2022/10/15 04:00:26;;;;;;;;;;;;;;;10.64;100.00;95204.63;5080763;28;19961;-65
2022/10/15 04:02:56;;;;;;;;;;;;;;;10.60;100.00;95200.06;5077476;28;20326;-65
2022/10/15 04:05:25;;;;;;;;;;;;;;;10.46;100.00;95202.84;5071397;28;20019;-66
2022/10/15 04:07:58;;;;;;;;;;;;;;;10.54;100.00;95206.16;5068834;28;19928;-66
2022/10/15 04:10:26;;;;;;;;;;;;;;;10.56;100.00;95209.34;5068191;28;19924;-65
2022/10/15 04:12:52;;;;;;;;;;;;;;;10.64;100.00;95201.19;5091209;28;19928;-65
2022/10/15 04:15:19;;;;;;;;;;;;;;;10.56;100.00;95209.34;5073120;28;20464;-66
2022/10/15 04:17:54;;;;;;;;;;;;;;;10.52;100.00;95214.97;5068422;28;19979;-66
2022/10/15 04:20:22;;;;;;;;;;;;;;;10.54;100.00;95206.16;5068198;28;20404;-66
2022/10/15 04:22:49;;;;;;;;;;;;;;;10.60;100.00;95210.47;5086889;28;19924;-66
2022/10/15 04:25:16;;;;;;;;;;;;;;;10.52;100.00;95209.75;5067944;28;19924;-66
2022/10/15 04:27:43;;;;;;;;;;;;;;;10.56;100.00;95209.34;5068055;28;19928;-67
2022/10/15 04:30:14;;;;;;;;;;;;;;;10.57;100.00;95205.69;5088130;28;20428;-66
2022/10/15 04:32:46;;;;;;;;;;;;;;;10.62;100.00;95213.66;5072932;28;19924;-65
2022/10/15 04:35:12;;;;;;;;;;;;;;;10.61;100.00;95206.88;5077036;28;20375;-66
2022/10/15 04:37:57;;;;;;;;;;;;;;;10.58;100.00;95207.31;5081210;28;19927;-66
2022/10/15 04:40:25;;;;;;;;;;;;;;;10.36;100.00;95204.38;5072372;28;19934;-66
2022/10/15 04:42:52;;;;;;;;;;;;;;;10.44;100.00;95212.69;5068377;28;19924;-66
2022/10/15 04:45:19;;;;;;;;;;;;;;;10.54;100.00;95206.16;5070780;28;20260;-66
2022/10/15 04:47:46;;;;;;;;;;;;;;;10.46;100.00;95208.06;5067481;28;19981;-66
2022/10/15 04:50:14;;;;;;;;;;;;;;;10.48;100.00;95211.22;5068018;28;19981;-67
2022/10/15 04:53:00;;;;;;;;;;;;;;;10.12;100.00;95215.44;5094357;28;20365;-66
2022/10/15 04:55:31;;;;;;;;;;;;;;;9.96;100.00;95216.03;5070636;28;19928;-66
2022/10/15 04:57:59;;;;;;;;;;;;;;;9.85;100.00;95219.34;5069681;28;20594;-67
2022/10/15 05:00:29;;;;;;;;;;;;;;;9.74;100.00;95219.06;5075780;28;20015;-66
2022/10/15 05:03:28;;;;;;;;;;;;;;;9.67;100.00;95233.94;5073826;28;19931;-66
2022/10/15 05:06:01;;;;;;;;;;;;;;;9.72;100.00;95226.28;5067584;28;20484;-66
2022/10/15 05:08:30;;;;;;;;;;;;;;;9.64;100.00;95229.16;5071790;28;19924;-66
2022/10/15 05:11:07;;;;;;;;;;;;;;;9.70;100.00;95225.69;5070295;28;19928;-66
2022/10/15 05:13:34;;;;;;;;;;;;;;;9.62;100.00;95231.19;5067866;28;19935;-66
2022/10/15 05:16:09;;;;;;;;;;;;;;;9.72;100.00;95236.69;5071561;28;19954;-66
2022/10/15 05:18:36;;;;;;;;;;;;;;;9.69;100.00;95244.91;5096870;28;19927;-68
2022/10/15 05:21:04;;;;;;;;;;;;;;;9.83;100.00;95242.16;5066393;28;19935;-66
2022/10/15 05:23:31;;;;;;;;;;;;;;;9.61;100.00;95249.59;5066238;28;19928;-66
2022/10/15 05:26:13;;;;;;;;;;;;;;;9.70;100.00;95243.88;5073816;28;19935;-67
2022/10/15 05:28:40;;;;;;;;;;;;;;;9.56;100.00;95245.03;5084787;28;20314;-67
2022/10/15 05:31:08;;;;;;;;;;;;;;;9.69;100.00;95255.31;5066699;28;19928;-66
2022/10/15 05:33:35;;;;;;;;;;;;;;;9.80;100.00;95258.22;5066689;28;19967;-65
2022/10/15 05:36:08;;;;;;;;;;;;;;;9.94;100.00;95249.28;5068963;28;19928;-66
2022/10/15 05:38:36;;;;;;;;;;;;;;;10.10;100.00;95259.13;5088144;28;19939;-66
2022/10/15 05:41:03;;;;;;;;;;;;;;;10.10;100.00;95253.91;5066988;28;20317;-65
2022/10/15 05:43:29;;;;;;;;;;;;;;;10.14;100.00;95254.28;5085098;28;20398;-65
2022/10/15 05:45:56;;;;;;;;;;;;;;;10.18;100.00;95259.84;5088200;28;19928;-65
2022/10/15 05:48:23;;;;;;;;;;;;;;;10.08;100.00;95261.16;5085096;28;19940;-66
2022/10/15 05:50:50;;;;;;;;;;;;;;;10.28;100.00;95254.91;5085326;28;19928;-66
2022/10/15 05:53:22;;;;;;;;;;;;;;;10.48;100.00;95263.31;5067064;28;19924;-66
2022/10/15 05:55:53;;;;;;;;;;;;;;;10.47;100.00;95273.94;5065099;28;20018;-66
2022/10/15 05:58:25;;;;;;;;;;;;;;;10.56;100.00;95275.22;5084950;28;20060;-66
2022/10/15 06:00:55;;;;;;;;;;;;;;;10.55;100.00;95280.66;5084378;28;19981;-66
2022/10/15 06:03:22;;;;;;;;;;;;;;;10.89;100.00;95277.41;5084286;28;20445;-66
2022/10/15 06:05:49;;;;;;;;;;;;;;;11.00;100.00;95277.66;5088403;28;19982;-65
2022/10/15 06:08:16;;;;;;;;;;;;;;;11.03;100.00;95272.00;5086408;28;20393;-66
2022/10/15 06:10:44;;;;;;;;;;;;;;;11.15;100.00;95280.66;5084537;28;20394;-64
2022/10/15 06:13:12;;;;;;;;;;;;;;;11.28;100.00;95279.66;5083578;28;20510;-66
2022/10/15 06:15:39;;;;;;;;;;;;;;;11.48;100.00;95284.56;5084218;28;19986;-66
2022/10/15 06:18:08;;;;;;;;;;;;;;;11.63;100.00;95286.75;5083570;28;19924;-66
2022/10/15 06:20:36;;;;;;;;;;;;;;;11.66;100.00;95292.31;5083662;28;20468;-66
2022/10/15 06:23:04;;;;;;;;;;;;;;;11.76;100.00;95290.97;5083929;28;19973;-65
2022/10/15 06:25:32;;;;;;;;;;;;;;;11.84;100.00;95293.22;5087707;28;19954;-66
2022/10/15 06:28:02;;;;;;;;;;;;;;;11.79;100.00;95295.72;5092129;28;19982;-65
2022/10/15 06:30:37;;;;;;;;;;;;;;;11.86;100.00;95301.63;5090642;28;19974;-66
2022/10/15 06:33:04;;;;;;;;;;;;;;;11.94;100.00;95298.72;5092943;28;19928;-66
2022/10/15 06:35:34;;;;;;;;;;;;;;;12.02;100.00;95310.63;5088864;28;19975;-66
2022/10/15 06:38:01;;;;;;;;;;;;;;;12.11;100.00;95311.06;5082574;28;19932;-66
2022/10/15 06:40:28;;;;;;;;;;;;;;;12.18;100.00;95316.97;5082544;28;19946;-67
2022/10/15 06:43:01;;;;;;;;;;;;;;;12.30;100.00;95312.53;5082227;28;19931;-66
2022/10/15 06:48:20;;;;;;;;;;;;;;;12.47;100.00;95311.81;5049598;22;19929;-64
2022/10/15 06:50:47;;;;;;;;;;;;;;;12.51;100.00;95315.53;5029670;28;19929;-64
2022/10/15 06:53:15;;;;;;;;;;;;;;;12.58;100.00;95313.59;5021004;28;19976;-65
2022/10/15 06:55:42;;;;;;;;;;;;;;;12.80;100.00;95317.19;5026660;28;19941;-65
2022/10/15 06:58:08;;;;;;;;;;;;;;;12.95;100.00;95318.50;5028512;28;20664;-65
2022/10/15 07:00:35;;;;;;;;;;;;;;;13.01;100.00;95312.31;5026103;28;19984;-64
2022/10/15 07:03:05;;;;;;;;;;;;;;;13.12;100.00;95308.84;5031938;28;19937;-67
2022/10/15 07:05:32;;;;;;;;;;;;;;;13.18;100.00;95318.41;5029307;28;20503;-63
2022/10/15 07:07:59;;;;;;;;;;;;;;;13.35;100.00;95315.81;5025055;28;19959;-66
2022/10/15 07:10:26;;;;;;;;;;;;;;;13.34;100.00;95316.06;5025012;28;20579;-64
2022/10/15 07:12:53;;;;;;;;;;;;;;;13.37;100.00;95315.59;5024525;28;20097;-67
2022/10/15 07:15:20;;;;;;;;;;;;;;;13.25;100.00;95314.81;5020420;28;19929;-63
2022/10/15 07:17:51;;;;;;;;;;;;;;;13.45;100.00;95323.06;5030167;28;19952;-68
2022/10/15 07:20:18;;;;;;;;;;;;;;;13.38;100.00;95323.22;5026899;28;19964;-68
2022/10/15 07:22:57;;;;;;;;;;;;;;;13.33;100.00;95324.94;5019425;28;19933;-67
2022/10/15 07:25:28;;;;;;;;;;;;;;;13.29;100.00;95324.59;5020604;28;20398;-63
2022/10/15 07:27:55;;;;;;;;;;;;;;;13.56;100.00;95327.44;5030008;28;19929;-63
2022/10/15 07:30:23;;;;;;;;;;;;;;;13.87;100.00;95335.75;5016995;28;19925;-63
2022/10/15 07:32:50;;;;;;;;;;;;;;;14.21;100.00;95335.72;5017270;28;19925;-64
2022/10/15 07:35:16;;;;;;;;;;;;;;;14.32;100.00;95334.81;5023824;28;20011;-62
2022/10/15 07:37:43;;;;;;;;;;;;;;;14.23;100.00;95335.50;5021071;28;20453;-66
2022/10/15 07:40:10;;;;;;;;;;;;;;;13.89;100.00;95336.31;5023478;28;19932;-66
2022/10/15 07:42:37;;;;;;;;;;;;;;;13.79;100.00;95328.28;5023930;28;19932;-66
2022/10/15 07:45:04;;;;;;;;;;;;;;;13.52;100.00;95276.59;5028292;28;19928;-65
2022/10/15 07:47:30;;;;;;;;;;;;;;;13.81;100.00;95331.50;5029112;28;19929;-65
2022/10/15 07:49:57;;;;;;;;;;;;;;;13.67;100.00;95330.22;5027673;28;19929;-65
2022/10/15 07:52:24;;;;;;;;;;;;;;;13.68;100.00;95326.56;5021036;28;19933;-64
2022/10/15 07:54:51;;;;;;;;;;;;;;;13.82;100.00;95333.06;5027497;28;20035;-65
2022/10/15 07:57:20;;;;;;;;;;;;;;;13.94;100.00;95331.16;5024914;28;19995;-68
2022/10/15 07:59:48;;;;;;;;;;;;;;;14.16;100.00;95327.78;5009765;28;19926;-68
2022/10/15 08:02:17;;;;;;;;;;;;;;;14.28;100.00;95331.13;5011292;28;21406;-68
2022/10/15 08:04:43;;;;;;;;;;;;;;;14.50;100.00;95332.97;5012925;28;20334;-69
2022/10/15 08:07:10;;;;;;;;;;;;;;;14.49;100.00;95332.16;5014598;28;19987;-68
2022/10/15 08:09:37;;;;;;;;;;;;;;;14.44;100.00;95334.72;5012262;28;20527;-68
2022/10/15 08:12:05;;;;;;;;;;;;;;;14.52;100.00;95336.91;5015964;28;20012;-68
2022/10/15 08:14:33;;;;;;;;;;;;;;;14.49;100.00;95341.84;5015110;28;19929;-66
2022/10/15 08:17:00;;;;;;;;;;;;;;;14.50;100.00;95343.44;5013276;28;19933;-65
2022/10/15 08:19:27;;;;;;;;;;;;;;;14.46;100.00;95331.88;5010474;28;20783;-64
2022/10/15 08:21:54;;;;;;;;;;;;;;;14.38;100.00;95330.44;5017369;28;19949;-64
2022/10/15 08:24:21;;;;;;;;;;;;;;;14.51;100.00;95340.59;5012271;28;20377;-63
2022/10/15 08:26:48;;;;;;;;;;;;;;;14.74;100.00;95327.50;4994943;28;19929;-68
2022/10/15 08:29:15;;;;;;;;;;;;;;;14.95;89.19;95323.31;5011107;28;20338;-63
2022/10/15 08:31:41;;;;;;;;;;;;;;;15.04;88.61;95322.59;5010844;28;20508;-67
2022/10/15 08:34:08;;;;;;;;;;;;;;;15.07;85.15;95316.88;4998931;28;19957;-65
2022/10/15 08:36:35;;;;;;;;;;;;;;;15.01;85.11;95317.06;5011963;28;19930;-64
2022/10/15 08:39:02;;;;;;;;;;;;;;;15.21;85.23;95305.97;5015172;28;19983;-67
2022/10/15 08:41:30;;;;;;;;;;;;;;;15.51;83.29;95309.94;5011366;28;20616;-63
2022/10/15 08:43:57;;;;;;;;;;;;;;;15.62;83.50;95316.84;5012395;28;20341;-64
2022/10/15 08:46:38;;;;;;;;;;;;;;;15.55;82.54;95316.25;5001339;28;20730;-64
2022/10/15 08:49:12;;;;;;;;;;;;;;;15.83;82.71;95313.34;5012055;28;19925;-63
2022/10/15 08:51:52;;;;;;;;;;;;;;;16.00;80.86;95313.19;5012730;28;19925;-64
2022/10/15 08:54:19;;;;;;;;;;;;;;;15.92;79.62;95320.75;5011365;28;19996;-64
2022/10/15 08:56:54;;;;;;;;;;;;;;;15.95;78.85;95320.25;5008407;28;19960;-63
2022/10/15 08:59:26;;;;;;;;;;;;;;;15.98;78.35;95325.00;5012576;28;19987;-63
2022/10/15 09:01:58;;;;;;;;;;;;;;;16.08;76.28;95317.19;5006456;28;20652;-64
2022/10/15 09:04:30;;;;;;;;;;;;;;;16.24;77.41;95324.13;5010000;28;20365;-63
2022/10/15 09:07:21;;;;;;;;;;;;;;;16.32;76.89;95322.06;5010134;28;19964;-64
2022/10/15 09:09:57;;;;;;;;;;;;;;;16.22;76.67;95320.97;5009412;28;20104;-63
2022/10/15 09:12:23;;;;;;;;;;;;;;;16.22;74.80;95317.53;5006275;28;19999;-64
2022/10/15 09:14:50;;;;;;;;;;;;;;;16.09;74.65;95316.16;5010623;28;20383;-63
2022/10/15 09:17:22;;;;;;;;;;;;;;;16.39;75.52;95314.75;5007860;28;20762;-63
2022/10/15 09:19:51;;;;;;;;;;;;;;;16.80;72.14;95317.56;5009356;28;19976;-63
2022/10/15 09:22:21;;;;;;;;;;;;;;;17.33;69.14;95323.50;5011858;28;19929;-63
2022/10/15 09:24:47;;;;;;;;;;;;;;;17.75;64.04;95322.47;5009653;28;20002;-63
2022/10/15 09:27:24;;;;;;;;;;;;;;;17.58;62.60;95324.56;5014363;28;19925;-63
2022/10/15 09:29:57;;;;;;;;;;;;;;;17.27;63.63;95324.53;5008947;28;21354;-65
2022/10/15 09:32:33;;;;;;;;;;;;;;;16.90;64.92;95322.09;5009915;28;21383;-63
2022/10/15 09:35:34;;;;;;;;;;;;;;;16.74;66.56;95323.84;5012477;28;20123;-63
2022/10/15 09:38:04;;;;;;;;;;;;;;;16.80;64.75;95323.59;4947527;28;19969;-63
2022/10/15 09:40:43;;;;;;;;;;;;;;;16.47;64.27;95323.97;4995776;28;19937;-68
2022/10/15 09:43:11;;;;;;;;;;;;;;;16.46;64.50;95319.75;5013114;28;19936;-62
2022/10/15 09:45:38;;;;;;;;;;;;;;;16.57;65.60;95322.19;5006499;28;19969;-67
2022/10/15 09:48:13;;;;;;;;;;;;;;;16.59;64.08;95314.84;5007352;28;19933;-67
2022/10/15 09:50:43;;;;;;;;;;;;;;;16.40;63.49;95311.88;5007399;28;20291;-66
2022/10/15 09:53:12;;;;;;;;;;;;;;;16.09;66.20;95316.16;5016115;28;19932;-67
2022/10/15 09:55:47;;;;;;;;;;;;;;;16.07;75.42;95302.47;5006452;28;19933;-65
2022/10/15 09:58:19;;;;;;;;;;;;;;;16.06;68.46;95311.38;5009241;28;20227;-64
2022/10/15 10:00:56;;;;;;;;;;;;;;;16.29;66.16;95304.16;4991927;28;19936;-64
2022/10/15 10:03:24;;;;;;;;;;;;;;;16.83;62.96;95303.91;5009934;28;19930;-63
2022/10/15 10:05:57;;;;;;;;;;;;;;;17.87;59.54;95306.41;5008221;28;20027;-63
2022/10/15 10:08:26;;;;;;;;;;;;;;;18.56;57.57;95306.00;5013388;28;19940;-64
2022/10/15 10:10:54;;;;;;;;;;;;;;;18.95;55.43;95308.00;5008298;28;19933;-64
2022/10/15 10:13:27;;;;;;;;;;;;;;;18.75;55.84;95309.63;5010075;28;19929;-64
2022/10/15 10:15:54;;;;;;;;;;;;;;;19.06;52.17;95314.78;5009546;28;20812;-64
2022/10/15 10:18:25;;;;;;;;;;;;;;;19.39;51.62;95315.13;5009430;28;19933;-64
2022/10/15 10:20:53;;;;;;;;;;;;;;;19.28;50.05;95323.13;5006622;28;20656;-63
2022/10/15 10:23:22;;;;;;;;;;;;;;;19.35;49.95;95324.66;5006319;28;20003;-64
2022/10/15 10:25:48;;;;;;;;;;;;;;;19.85;49.27;95314.81;5008157;28;20028;-64
2022/10/15 10:28:18;;;;;;;;;;;;;;;19.60;46.56;95313.91;5008394;28;20495;-64
2022/10/15 10:31:11;;;;;;;;;;;;;;;19.63;49.91;95313.34;5014017;28;20016;-64
2022/10/15 10:33:40;;;;;;;;;;;;;;;19.31;46.19;95268.19;5003501;28;19929;-63
2022/10/15 10:36:17;;;;;;;;;;;;;;;19.09;49.16;95308.97;5011907;28;20008;-63
2022/10/15 10:38:53;;;;;;;;;;;;;;;19.65;47.25;95311.22;5010663;28;19986;-63
2022/10/15 10:41:20;;;;;;;;;;;;;;;19.91;47.29;95308.41;5013711;28;19999;-65
2022/10/15 10:43:53;;;;;;;;;;;;;;;20.55;46.91;95305.66;5005712;28;19934;-64
2022/10/15 10:46:22;;;;;;;;;;;;;;;20.84;45.28;95297.66;5012397;28;19925;-64
2022/10/15 10:48:50;;;;;;;;;;;;;;;20.50;46.04;95295.13;5012990;28;19932;-64
2022/10/15 10:51:18;;;;;;;;;;;;;;;20.03;48.24;95303.53;5012089;28;19933;-63
2022/10/15 10:54:00;;;;;;;;;;;;;;;19.65;47.33;95295.38;4997850;28;20224;-67
2022/10/15 10:56:34;;;;;;;;;;;;;;;19.60;49.37;95298.06;5009325;28;19979;-63
2022/10/15 10:59:12;;;;;;;;;;;;;;;20.02;47.24;95309.09;5009904;28;19926;-68
2022/10/15 11:01:40;;;;;;;;;;;;;;;20.22;46.84;95302.81;5009395;28;19956;-68
2022/10/15 11:04:12;;;;;;;;;;;;;;;20.12;46.47;95295.00;5012622;28;19932;-67
2022/10/15 11:06:49;;;;;;;;;;;;;;;19.79;46.12;95300.03;5007213;28;19925;-69
2022/10/15 11:09:27;;;;;;;;;;;;;;;19.94;46.70;95297.28;5007772;28;19925;-63
2022/10/15 11:12:12;;;;;;;;;;;;;;;19.56;46.38;95297.03;5009949;28;19933;-63
2022/10/15 11:14:41;;;;;;;;;;;;;;;19.70;47.85;95291.09;4992771;28;19932;-63
2022/10/15 11:17:26;;;;;;;;;;;;;;;20.15;49.10;95291.78;5013026;28;19969;-66
2022/10/15 11:20:04;;;;;;;;;;;;;;;20.46;44.64;95296.78;5010803;28;19929;-66
2022/10/15 11:23:00;;;;;;;;;;;;;;;20.36;44.85;95298.44;5009214;28;20396;-67
2022/10/15 11:25:36;;;;;;;;;;;;;;;20.21;44.78;95301.25;5008917;28;19929;-63
2022/10/15 11:28:21;;;;;;;;;;;;;;;20.19;45.63;95292.81;5012169;28;20425;-65
2022/10/15 11:30:57;;;;;;;;;;;;;;;19.52;46.84;95243.19;5008471;28;19925;-65
2022/10/15 11:33:26;;;;;;;;;;;;;;;19.61;46.54;95283.78;5011667;28;19976;-65
2022/10/15 11:36:05;;;;;;;;;;;;;;;20.15;46.40;95282.00;5014548;28;19925;-64
2022/10/15 11:38:45;;;;;;;;;;;;;;;20.50;45.50;95281.91;5010628;28;20050;-64
2022/10/15 11:41:30;;;;;;;;;;;;;;;21.17;45.29;95281.84;5015595;28;19976;-66
2022/10/15 11:44:23;;;;;;;;;;;;;;;21.69;43.29;95289.84;5019733;28;19929;-66
2022/10/15 11:46:50;;;;;;;;;;;;;;;22.07;40.41;95284.44;5012359;28;19929;-65
2022/10/15 11:49:31;;;;;;;;;;;;;;;21.75;42.30;95286.03;5012748;28;20018;-70
2022/10/15 11:52:10;;;;;;;;;;;;;;;21.77;41.85;95297.16;5012595;28;20021;-69
2022/10/15 11:54:40;;;;;;;;;;;;;;;21.73;40.70;95286.34;4999496;28;19933;-69
2022/10/15 11:57:10;;;;;;;;;;;;;;;21.19;41.85;95285.81;5009462;28;19925;-71
2022/10/15 11:59:46;;;;;;;;;;;;;;;21.33;41.37;95290.38;5016485;28;20608;-71
2022/10/15 12:02:33;;;;;;;;;;;;;;;21.25;43.87;95285.72;5013018;28;19926;-70
2022/10/15 12:05:04;;;;;;;;;;;;;;;21.84;42.36;95292.25;5011029;28;19941;-70
2022/10/15 12:07:39;;;;;;;;;;;;;;;21.77;42.86;95299.81;5012517;28;19965;-71
2022/10/15 12:10:10;;;;;;;;;;;;;;;21.17;43.30;95298.53;5014296;28;19929;-72
2022/10/15 12:12:37;;;;;;;;;;;;;;;20.86;44.59;95306.09;4995810;28;19965;-71
2022/10/15 12:15:13;;;;;;;;;;;;;;;20.55;45.48;95301.16;5007459;28;20617;-70
2022/10/15 12:17:43;;;;;;;;;;;;;;;20.11;45.51;95311.94;5014169;28;20735;-67
2022/10/15 12:20:14;;;;;;;;;;;;;;;19.92;47.05;95310.00;5016303;28;19960;-71
2022/10/15 12:22:44;;;;;;;;;;;;;;;19.67;46.90;95301.16;5014251;28;20645;-70
2022/10/15 12:25:47;;;;;;;;;;;;;;;19.43;47.64;95308.25;5011161;28;19929;-71
2022/10/15 12:28:16;;;;;;;;;;;;;;;19.01;49.23;95296.34;4948072;28;19922;-69
2022/10/15 12:30:52;;;;;;;;;;;;;;;19.26;49.20;95292.75;5000954;28;20028;-69
2022/10/15 12:33:30;;;;;;;;;;;;;;;19.07;48.10;95301.31;5009567;28;20962;-70
2022/10/15 12:35:58;;;;;;;;;;;;;;;19.17;49.01;95297.81;4993339;28;20241;-68
2022/10/15 12:38:24;;;;;;;;;;;;;;;19.04;49.79;95301.06;4995098;28;19933;-69
2022/10/15 12:41:11;;;;;;;;;;;;;;;18.71;49.30;95303.31;5014218;28;20399;-68
2022/10/15 12:43:40;;;;;;;;;;;;;;;18.94;50.97;95287.94;5010528;28;20032;-70
2022/10/15 12:46:09;;;;;;;;;;;;;;;18.78;51.68;95292.47;5011341;28;20003;-69
2022/10/15 12:48:43;;;;;;;;;;;;;;;18.94;51.27;95285.28;5014625;28;19968;-70
2022/10/15 12:51:22;;;;;;;;;;;;;;;18.80;52.66;95277.13;5010541;28;19975;-69
2022/10/15 12:53:50;;;;;;;;;;;;;;;18.40;52.26;95286.81;5010804;28;20027;-69
2022/10/15 12:56:17;;;;;;;;;;;;;;;18.44;51.86;95293.94;5010379;28;19925;-67
2022/10/15 12:58:43;;;;;;;;;;;;;;;18.82;52.13;95283.78;5010537;28;20690;-68
2022/10/15 13:01:13;;;;;;;;;;;;;;;19.86;48.23;95289.94;5012507;28;19925;-68